createdAt,value
2023-03-21T00:04:21.121Z,71.34
2023-03-21T00:09:42.859Z,71.66
2023-03-21T00:15:10.137Z,71.20
2023-03-21T00:20:34.295Z,71.94
2023-03-21T00:25:56.005Z,73.17
2023-03-21T00:31:19.538Z,72.27
2023-03-21T00:36:41.540Z,72.00
2023-03-21T00:42:03.874Z,71.41
2023-03-21T00:47:26.084Z,70.85
2023-03-21T00:52:47.955Z,72.31
2023-03-21T00:58:10.220Z,73.19
2023-03-21T01:03:42.427Z,73.28
2023-03-21T01:09:04.145Z,71.67
2023-03-21T01:14:25.931Z,72.38
2023-03-21T01:19:51.870Z,72.65
2023-03-21T01:25:22.393Z,73.29
2023-03-21T01:30:49.930Z,73.95
2023-03-21T01:36:19.763Z,73.65
2023-03-21T01:41:44.815Z,73.96
2023-03-21T01:47:12.250Z,74.71
2023-03-21T01:52:39.033Z,74.67
2023-03-21T01:58:07.119Z,74.75
2023-03-21T02:03:37.966Z,74.98
2023-03-21T02:09:04.718Z,75.41
2023-03-21T02:14:29.410Z,75.53
2023-03-21T02:20:33.459Z,75.85
2023-03-21T02:26:09.916Z,75.88
2023-03-21T02:31:37.648Z,76.07
2023-03-21T02:37:07.983Z,76.17
2023-03-21T02:42:43.301Z,75.55
2023-03-21T02:48:20.215Z,76.23
2023-03-21T02:54:16.197Z,76.50
2023-03-21T02:59:44.395Z,76.01
2023-03-21T03:05:21.918Z,76.29
2023-03-21T03:11:12.873Z,76.09
2023-03-21T03:17:14.087Z,76.17
2023-03-21T03:22:49.475Z,77.07
2023-03-21T03:28:15.052Z,77.03
2023-03-21T03:33:41.363Z,77.85
2023-03-21T03:39:08.813Z,77.29
2023-03-21T03:44:30.617Z,76.12
2023-03-21T03:50:03.888Z,76.62
2023-03-21T03:55:28.091Z,75.83
2023-03-21T04:00:51.131Z,76.00
2023-03-21T04:06:13.558Z,76.88
2023-03-21T04:11:35.298Z,76.67
2023-03-21T04:16:57.080Z,76.43
2023-03-21T04:22:18.829Z,77.08
2023-03-21T04:27:40.809Z,77.04
2023-03-21T04:33:02.700Z,76.85
2023-03-21T04:38:30.633Z,78.42
2023-03-21T04:43:52.740Z,77.37
2023-03-21T04:49:14.433Z,77.66
2023-03-21T04:54:36.126Z,76.65
2023-03-21T04:59:57.811Z,76.62
2023-03-21T05:05:19.630Z,77.46
2023-03-21T05:10:41.386Z,77.91
2023-03-21T05:16:03.103Z,78.45
2023-03-21T05:21:29.313Z,79.36
2023-03-21T05:26:52.199Z,78.31
2023-03-21T05:32:13.924Z,78.11
2023-03-21T05:37:36.004Z,78.04
2023-03-21T05:42:57.723Z,78.37
2023-03-21T05:48:19.517Z,78.18
2023-03-21T05:53:41.223Z,78.00
2023-03-21T05:59:02.938Z,77.65
2023-03-21T06:04:24.733Z,77.45
2023-03-21T06:09:46.556Z,77.51
2023-03-21T06:15:08.923Z,78.21
2023-03-21T06:20:30.753Z,77.80
2023-03-21T06:25:52.478Z,76.04
2023-03-21T06:31:17.031Z,74.78
2023-03-21T06:36:38.883Z,74.52
2023-03-21T06:42:01.157Z,74.35
2023-03-21T06:47:22.832Z,73.65
2023-03-21T06:52:44.553Z,73.32
2023-03-21T06:58:06.410Z,73.91
2023-03-21T07:03:28.500Z,74.20
2023-03-21T07:08:50.265Z,75.23
2023-03-21T07:14:12.079Z,74.64
2023-03-21T07:19:33.861Z,74.32
2023-03-21T07:25:04.402Z,72.21
2023-03-21T07:30:27.123Z,71.96
2023-03-21T07:35:53.493Z,72.08
2023-03-21T07:46:37.899Z,72.34
2023-03-21T07:52:02.984Z,72.65
2023-03-21T07:57:27.518Z,72.15
2023-03-21T08:02:57.038Z,72.20
2023-03-21T08:08:20.366Z,69.35
2023-03-21T08:13:42.170Z,70.61
2023-03-21T08:19:04.153Z,68.81
2023-03-21T08:24:27.097Z,69.36
2023-03-21T08:29:48.880Z,68.89
2023-03-21T08:35:13.603Z,68.20
2023-03-21T08:40:35.911Z,67.23
2023-03-21T08:45:57.835Z,66.76
2023-03-21T08:51:20.050Z,66.89
2023-03-21T08:56:41.776Z,67.44
2023-03-21T09:02:04.007Z,63.42
2023-03-21T09:07:27.880Z,64.90
2023-03-21T09:12:52.148Z,62.34
2023-03-21T09:18:15.055Z,63.57
2023-03-21T09:23:37.351Z,56.50
2023-03-21T09:29:00.802Z,55.77
2023-03-21T09:34:22.732Z,50.93
2023-03-21T09:39:45.355Z,51.85
2023-03-21T09:45:20.813Z,51.96
2023-03-21T09:50:43.235Z,52.51
2023-03-21T09:56:06.821Z,52.63
2023-03-21T10:01:32.900Z,50.76
2023-03-21T10:07:02.110Z,49.02
2023-03-21T10:12:25.669Z,50.08
2023-03-21T10:18:01.412Z,49.34
2023-03-21T10:23:28.622Z,49.29
2023-03-21T10:28:53.395Z,50.44
2023-03-21T10:34:24.280Z,48.97
2023-03-21T10:39:49.068Z,49.53
2023-03-21T10:45:18.039Z,49.65
2023-03-21T10:50:41.130Z,48.76
2023-03-21T10:56:09.157Z,50.17
2023-03-21T11:01:37.590Z,50.58
2023-03-21T11:07:09.565Z,50.96
2023-03-21T11:12:40.643Z,50.43
2023-03-21T11:18:15.754Z,49.54
2023-03-21T11:23:43.897Z,48.52
2023-03-21T11:29:27.608Z,48.79
2023-03-21T11:35:02.083Z,49.95
2023-03-21T11:40:32.424Z,50.73
2023-03-21T11:46:14.565Z,50.40
2023-03-21T11:51:54.700Z,48.87
2023-03-21T11:57:53.441Z,47.24
2023-03-21T12:03:45.321Z,48.69
2023-03-21T12:09:17.692Z,49.72
2023-03-21T12:15:02.221Z,49.64
2023-03-21T12:20:35.323Z,49.92
2023-03-21T12:26:03.052Z,49.62
2023-03-21T12:31:46.993Z,50.70
2023-03-21T12:37:19.715Z,49.28
2023-03-21T12:42:50.585Z,49.79
2023-03-21T12:48:30.322Z,50.85
2023-03-21T12:54:08.764Z,51.17
2023-03-21T12:59:42.217Z,49.84
2023-03-21T13:05:28.329Z,50.25
2023-03-21T13:10:50.081Z,48.88
2023-03-21T13:16:14.699Z,49.10
2023-03-21T13:21:39.166Z,48.30
2023-03-21T13:27:08.975Z,48.29
2023-03-21T13:32:34.459Z,48.10
2023-03-21T13:38:12.904Z,45.78
2023-03-21T13:43:53.014Z,47.60
2023-03-21T13:49:26.762Z,45.27
2023-03-21T13:54:53.147Z,47.37
2023-03-21T14:00:27.106Z,47.84
2023-03-21T14:05:50.713Z,49.02
2023-03-21T14:11:18.591Z,48.51
2023-03-21T14:16:41.383Z,48.63
2023-03-21T14:22:05.075Z,49.49
2023-03-21T14:27:31.504Z,49.08
2023-03-21T14:33:07.023Z,49.44
2023-03-21T14:38:34.776Z,49.07
2023-03-21T14:44:14.260Z,49.34
2023-03-21T14:49:37.711Z,49.25
2023-03-21T14:55:11.490Z,49.72
2023-03-21T15:00:36.340Z,50.04
2023-03-21T15:05:59.166Z,49.24
2023-03-21T15:11:29.725Z,49.53
2023-03-21T15:16:52.816Z,48.41
2023-03-21T15:22:37.550Z,49.03
2023-03-21T15:28:00.404Z,49.45
2023-03-21T15:33:25.465Z,49.62
2023-03-21T15:38:48.941Z,50.68
2023-03-21T15:44:14.755Z,50.85
2023-03-21T15:49:41.778Z,51.01
2023-03-21T15:55:21.524Z,51.64
2023-03-21T16:00:49.824Z,52.83
2023-03-21T16:06:12.437Z,53.26
2023-03-21T16:11:40.437Z,53.52
2023-03-21T16:17:22.491Z,54.12
2023-03-21T16:22:44.263Z,54.17
2023-03-21T16:28:14.145Z,54.27
2023-03-21T16:33:35.851Z,54.56
2023-03-21T16:38:58.621Z,55.18
2023-03-21T16:44:20.535Z,56.65
2023-03-21T16:49:42.912Z,55.50
2023-03-21T16:55:04.972Z,56.11
2023-03-21T17:00:29.051Z,56.81
2023-03-21T17:05:50.789Z,56.01
2023-03-21T17:11:16.396Z,55.62
2023-03-21T17:16:43.019Z,55.72
2023-03-21T17:22:05.248Z,56.29
2023-03-21T17:27:27.080Z,55.80
2023-03-21T17:32:50.164Z,56.10
2023-03-21T17:38:16.743Z,56.45
2023-03-21T17:43:38.536Z,57.53
2023-03-21T17:49:00.573Z,57.39
2023-03-21T17:54:22.280Z,57.41
2023-03-21T17:59:44.130Z,58.34
2023-03-21T18:05:06.795Z,58.42
2023-03-21T18:10:28.670Z,59.23
2023-03-21T18:15:50.728Z,59.16
2023-03-21T18:21:19.514Z,60.91
2023-03-21T18:26:43.497Z,62.04
2023-03-21T18:32:07.739Z,61.66
2023-03-21T18:37:35.290Z,62.40
2023-03-21T18:43:49.998Z,63.24
2023-03-21T18:48:39.459Z,62.80
2023-03-21T18:54:01.801Z,64.15
2023-03-21T18:59:23.609Z,63.28
2023-03-21T19:04:45.589Z,63.31
2023-03-21T19:10:19.953Z,62.84
2023-03-21T19:15:42.333Z,63.03
2023-03-21T19:21:05.567Z,62.68
2023-03-21T19:26:27.788Z,62.81
2023-03-21T19:31:51.518Z,63.07
2023-03-21T19:37:13.520Z,65.04
2023-03-21T19:42:36.525Z,62.39
2023-03-21T19:47:58.514Z,62.58
2023-03-21T19:53:20.699Z,63.90
2023-03-21T19:58:42.439Z,64.91
2023-03-21T20:04:05.274Z,65.17
2023-03-21T20:09:52.338Z,65.06
2023-03-21T20:15:17.573Z,66.00
2023-03-21T20:20:42.677Z,65.56
2023-03-21T20:26:13.337Z,65.64
2023-03-21T20:31:35.425Z,65.79
2023-03-21T20:36:58.333Z,64.65
2023-03-21T20:42:20.219Z,64.51
2023-03-21T20:47:43.280Z,66.22
2023-03-21T20:53:07.531Z,65.89
2023-03-21T20:58:57.190Z,65.27
2023-03-21T21:04:19.746Z,65.91
2023-03-21T21:09:42.902Z,65.89
2023-03-21T21:15:08.377Z,66.06
2023-03-21T21:20:33.304Z,65.42
2023-03-21T21:25:55.232Z,65.89
2023-03-21T21:31:18.484Z,67.03
2023-03-21T21:36:40.327Z,67.25
2023-03-21T21:42:02.529Z,68.02
2023-03-21T21:47:24.263Z,68.24
2023-03-21T21:52:52.558Z,68.16
2023-03-21T21:58:21.268Z,68.35
2023-03-21T22:03:45.759Z,68.46
2023-03-21T22:09:07.786Z,69.12
2023-03-21T22:14:29.671Z,68.54
2023-03-21T22:20:04.703Z,68.28
2023-03-21T22:25:27.413Z,68.27
2023-03-21T22:30:49.213Z,68.34
2023-03-21T22:36:11.588Z,68.47
2023-03-21T22:41:33.402Z,68.05
2023-03-21T22:46:55.380Z,69.04
2023-03-21T22:52:17.109Z,70.23
2023-03-21T22:57:38.962Z,69.97
2023-03-21T23:03:01.008Z,68.85
2023-03-21T23:08:23.582Z,69.32
2023-03-21T23:13:46.781Z,70.45
2023-03-21T23:19:10.437Z,70.07
2023-03-21T23:24:32.295Z,71.36
2023-03-21T23:29:54.249Z,71.22
2023-03-21T23:35:16.238Z,69.92
2023-03-21T23:40:41.439Z,69.64
2023-03-21T23:46:04.074Z,69.70
2023-03-21T23:51:25.972Z,69.01
2023-03-21T23:56:47.660Z,69.76
